sensor_id;sensor_type;location;lat;lon;timestamp;pressure;altitude;pressure_sealevel;temperature
65290;BMP180;51893;59.754;10.110;2023-11-21T00:00:10;102089.80;;;0.04
65290;BMP180;51893;59.754;10.110;2023-11-21T00:03:01;102089.80;;;0.00
65290;BMP180;51893;59.754;10.110;2023-11-21T00:05:30;102088.40;;;0.00
65290;BMP180;51893;59.754;10.110;2023-11-21T00:07:58;102092.20;;;-0.10
65290;BMP180;51893;59.754;10.110;2023-11-21T00:10:26;102088.40;;;-0.10
65290;BMP180;51893;59.754;10.110;2023-11-21T00:12:54;102099.20;;;-0.10
65290;BMP180;51893;59.754;10.110;2023-11-21T00:15:23;102102.00;;;-0.10
65290;BMP180;51893;59.754;10.110;2023-11-21T00:17:51;102102.20;;;-0.20
65290;BMP180;51893;59.754;10.110;2023-11-21T00:20:20;102100.20;;;-0.30
65290;BMP180;51893;59.754;10.110;2023-11-21T00:22:48;102104.60;;;-0.30
65290;BMP180;51893;59.754;10.110;2023-11-21T00:25:17;102101.60;;;-0.40
65290;BMP180;51893;59.754;10.110;2023-11-21T00:27:45;102107.80;;;-0.50
65290;BMP180;51893;59.754;10.110;2023-11-21T00:30:14;102109.00;;;-0.50
65290;BMP180;51893;59.754;10.110;2023-11-21T00:32:46;102104.80;;;-0.40
65290;BMP180;51893;59.754;10.110;2023-11-21T00:35:14;102114.60;;;-0.40
65290;BMP180;51893;59.754;10.110;2023-11-21T00:37:43;102117.60;;;-0.40
65290;BMP180;51893;59.754;10.110;2023-11-21T00:40:12;102119.20;;;-0.30
65290;BMP180;51893;59.754;10.110;2023-11-21T00:42:42;102118.00;;;-0.30
65290;BMP180;51893;59.754;10.110;2023-11-21T00:45:10;102114.60;;;-0.30
65290;BMP180;51893;59.754;10.110;2023-11-21T00:47:40;102124.20;;;-0.30
65290;BMP180;51893;59.754;10.110;2023-11-21T00:50:09;102128.80;;;-0.30
65290;BMP180;51893;59.754;10.110;2023-11-21T00:52:37;102128.80;;;-0.30
65290;BMP180;51893;59.754;10.110;2023-11-21T00:55:09;102137.00;;;-0.40
65290;BMP180;51893;59.754;10.110;2023-11-21T00:57:41;102141.80;;;-0.50
65290;BMP180;51893;59.754;10.110;2023-11-21T01:00:10;102152.40;;;-0.60
65290;BMP180;51893;59.754;10.110;2023-11-21T01:02:45;102158.60;;;-0.70
65290;BMP180;51893;59.754;10.110;2023-11-21T01:05:15;102159.20;;;-0.70
65290;BMP180;51893;59.754;10.110;2023-11-21T01:07:43;102168.60;;;-0.70
65290;BMP180;51893;59.754;10.110;2023-11-21T01:10:11;102168.80;;;-0.68
65290;BMP180;51893;59.754;10.110;2023-11-21T01:12:40;102170.40;;;-0.64
65290;BMP180;51893;59.754;10.110;2023-11-21T01:15:08;102175.60;;;-0.62
65290;BMP180;51893;59.754;10.110;2023-11-21T01:17:36;102172.80;;;-0.62
65290;BMP180;51893;59.754;10.110;2023-11-21T01:20:09;102175.40;;;-0.60
65290;BMP180;51893;59.754;10.110;2023-11-21T01:22:42;102181.20;;;-0.60
65290;BMP180;51893;59.754;10.110;2023-11-21T01:25:13;102177.80;;;-0.60
65290;BMP180;51893;59.754;10.110;2023-11-21T01:27:43;102176.20;;;-0.60
65290;BMP180;51893;59.754;10.110;2023-11-21T01:30:11;102174.40;;;-0.60
65290;BMP180;51893;59.754;10.110;2023-11-21T01:32:39;102182.80;;;-0.60
65290;BMP180;51893;59.754;10.110;2023-11-21T01:35:09;102188.20;;;-0.70
65290;BMP180;51893;59.754;10.110;2023-11-21T01:37:38;102185.60;;;-0.80
65290;BMP180;51893;59.754;10.110;2023-11-21T01:40:08;102185.60;;;-0.90
65290;BMP180;51893;59.754;10.110;2023-11-21T01:42:43;102188.60;;;-0.90
65290;BMP180;51893;59.754;10.110;2023-11-21T01:45:14;102201.20;;;-1.00
65290;BMP180;51893;59.754;10.110;2023-11-21T01:47:45;102202.20;;;-1.00
65290;BMP180;51893;59.754;10.110;2023-11-21T01:50:21;102203.60;;;-0.98
65290;BMP180;51893;59.754;10.110;2023-11-21T01:52:51;102204.40;;;-0.90
65290;BMP180;51893;59.754;10.110;2023-11-21T01:55:21;102209.00;;;-0.80
65290;BMP180;51893;59.754;10.110;2023-11-21T01:57:56;102208.40;;;-0.80
65290;BMP180;51893;59.754;10.110;2023-11-21T02:00:26;102215.00;;;-0.80
65290;BMP180;51893;59.754;10.110;2023-11-21T02:03:00;102218.80;;;-0.80
65290;BMP180;51893;59.754;10.110;2023-11-21T02:05:29;102221.00;;;-0.80
65290;BMP180;51893;59.754;10.110;2023-11-21T02:07:58;102219.80;;;-0.90
65290;BMP180;51893;59.754;10.110;2023-11-21T02:10:26;102223.20;;;-0.90
65290;BMP180;51893;59.754;10.110;2023-11-21T02:12:55;102230.40;;;-0.98
65290;BMP180;51893;59.754;10.110;2023-11-21T02:15:24;102235.00;;;-1.00
65290;BMP180;51893;59.754;10.110;2023-11-21T02:17:58;102232.20;;;-1.00
65290;BMP180;51893;59.754;10.110;2023-11-21T02:20:28;102235.00;;;-1.00
65290;BMP180;51893;59.754;10.110;2023-11-21T02:22:58;102237.00;;;-1.00
65290;BMP180;51893;59.754;10.110;2023-11-21T02:25:31;102237.20;;;-0.90
65290;BMP180;51893;59.754;10.110;2023-11-21T02:28:03;102232.80;;;-0.90
65290;BMP180;51893;59.754;10.110;2023-11-21T02:30:31;102229.20;;;-0.90
65290;BMP180;51893;59.754;10.110;2023-11-21T02:33:02;102235.20;;;-1.00
65290;BMP180;51893;59.754;10.110;2023-11-21T02:35:30;102232.00;;;-1.00
65290;BMP180;51893;59.754;10.110;2023-11-21T02:38:00;102231.00;;;-1.00
65290;BMP180;51893;59.754;10.110;2023-11-21T02:40:29;102235.80;;;-1.00
65290;BMP180;51893;59.754;10.110;2023-11-21T02:42:57;102244.20;;;-1.10
65290;BMP180;51893;59.754;10.110;2023-11-21T02:45:27;102249.20;;;-1.10
65290;BMP180;51893;59.754;10.110;2023-11-21T02:47:55;102252.60;;;-1.20
65290;BMP180;51893;59.754;10.110;2023-11-21T02:50:27;102255.60;;;-1.20
65290;BMP180;51893;59.754;10.110;2023-11-21T02:52:56;102260.20;;;-1.28
65290;BMP180;51893;59.754;10.110;2023-11-21T02:55:29;102268.60;;;-1.24
65290;BMP180;51893;59.754;10.110;2023-11-21T02:57:59;102266.20;;;-1.20
65290;BMP180;51893;59.754;10.110;2023-11-21T03:00:29;102276.20;;;-1.20
65290;BMP180;51893;59.754;10.110;2023-11-21T03:02:58;102277.80;;;-1.20
65290;BMP180;51893;59.754;10.110;2023-11-21T03:05:29;102275.60;;;-1.10
65290;BMP180;51893;59.754;10.110;2023-11-21T03:07:59;102271.60;;;-1.00
65290;BMP180;51893;59.754;10.110;2023-11-21T03:10:27;102270.80;;;-1.10
65290;BMP180;51893;59.754;10.110;2023-11-21T03:12:55;102270.00;;;-1.10
65290;BMP180;51893;59.754;10.110;2023-11-21T03:15:25;102270.60;;;-1.10
65290;BMP180;51893;59.754;10.110;2023-11-21T03:17:53;102278.20;;;-1.10
65290;BMP180;51893;59.754;10.110;2023-11-21T03:20:21;102277.40;;;-1.10
65290;BMP180;51893;59.754;10.110;2023-11-21T03:22:49;102275.00;;;-1.10
65290;BMP180;51893;59.754;10.110;2023-11-21T03:25:17;102279.60;;;-1.02
65290;BMP180;51893;59.754;10.110;2023-11-21T03:27:45;102274.40;;;-1.00
65290;BMP180;51893;59.754;10.110;2023-11-21T03:30:14;102272.80;;;-1.00
65290;BMP180;51893;59.754;10.110;2023-11-21T03:32:43;102270.40;;;-0.90
65290;BMP180;51893;59.754;10.110;2023-11-21T03:35:19;102273.20;;;-0.90
65290;BMP180;51893;59.754;10.110;2023-11-21T03:37:49;102271.00;;;-1.00
65290;BMP180;51893;59.754;10.110;2023-11-21T03:40:17;102274.20;;;-1.00
65290;BMP180;51893;59.754;10.110;2023-11-21T03:42:45;102276.20;;;-1.00
65290;BMP180;51893;59.754;10.110;2023-11-21T03:45:13;102281.40;;;-1.00
65290;BMP180;51893;59.754;10.110;2023-11-21T03:47:42;102289.80;;;-1.00
65290;BMP180;51893;59.754;10.110;2023-11-21T03:50:10;102296.60;;;-1.00
65290;BMP180;51893;59.754;10.110;2023-11-21T03:52:39;102296.40;;;-1.00
65290;BMP180;51893;59.754;10.110;2023-11-21T03:55:08;102299.60;;;-1.00
65290;BMP180;51893;59.754;10.110;2023-11-21T03:57:36;102298.60;;;-1.00
65290;BMP180;51893;59.754;10.110;2023-11-21T04:00:06;102299.60;;;-1.02
65290;BMP180;51893;59.754;10.110;2023-11-21T04:02:36;102305.80;;;-1.10
65290;BMP180;51893;59.754;10.110;2023-11-21T04:05:07;102313.80;;;-1.10
65290;BMP180;51893;59.754;10.110;2023-11-21T04:07:35;102314.00;;;-1.10
65290;BMP180;51893;59.754;10.110;2023-11-21T04:10:08;102314.80;;;-1.10
65290;BMP180;51893;59.754;10.110;2023-11-21T04:12:40;102314.80;;;-1.10
65290;BMP180;51893;59.754;10.110;2023-11-21T04:15:09;102314.20;;;-1.04
65290;BMP180;51893;59.754;10.110;2023-11-21T04:17:38;102312.40;;;-1.00
65290;BMP180;51893;59.754;10.110;2023-11-21T04:20:09;102317.80;;;-1.00
65290;BMP180;51893;59.754;10.110;2023-11-21T04:22:39;102324.40;;;-1.00
65290;BMP180;51893;59.754;10.110;2023-11-21T04:25:16;102326.60;;;-1.00
65290;BMP180;51893;59.754;10.110;2023-11-21T04:27:45;102335.40;;;-0.90
65290;BMP180;51893;59.754;10.110;2023-11-21T04:30:15;102341.00;;;-1.00
65290;BMP180;51893;59.754;10.110;2023-11-21T04:32:43;102341.40;;;-1.00
65290;BMP180;51893;59.754;10.110;2023-11-21T04:35:12;102344.00;;;-1.08
65290;BMP180;51893;59.754;10.110;2023-11-21T04:37:40;102350.40;;;-1.10
65290;BMP180;51893;59.754;10.110;2023-11-21T04:40:09;102355.80;;;-1.20
65290;BMP180;51893;59.754;10.110;2023-11-21T04:42:38;102350.00;;;-1.30
65290;BMP180;51893;59.754;10.110;2023-11-21T04:45:08;102352.20;;;-1.30
65290;BMP180;51893;59.754;10.110;2023-11-21T04:47:40;102349.00;;;-1.30
65290;BMP180;51893;59.754;10.110;2023-11-21T04:50:09;102350.80;;;-1.30
65290;BMP180;51893;59.754;10.110;2023-11-21T04:52:37;102347.60;;;-1.38
65290;BMP180;51893;59.754;10.110;2023-11-21T04:55:05;102343.60;;;-1.32
65290;BMP180;51893;59.754;10.110;2023-11-21T04:57:39;102345.80;;;-1.32
65290;BMP180;51893;59.754;10.110;2023-11-21T05:00:11;102347.40;;;-1.30
65290;BMP180;51893;59.754;10.110;2023-11-21T05:02:41;102351.20;;;-1.30
65290;BMP180;51893;59.754;10.110;2023-11-21T05:05:10;102356.80;;;-1.40
65290;BMP180;51893;59.754;10.110;2023-11-21T05:07:40;102359.60;;;-1.40
65290;BMP180;51893;59.754;10.110;2023-11-21T05:10:10;102361.40;;;-1.40
65290;BMP180;51893;59.754;10.110;2023-11-21T05:12:43;102359.80;;;-1.40
65290;BMP180;51893;59.754;10.110;2023-11-21T05:15:15;102368.60;;;-1.50
65290;BMP180;51893;59.754;10.110;2023-11-21T05:17:45;102370.60;;;-1.54
65290;BMP180;51893;59.754;10.110;2023-11-21T05:20:16;102375.20;;;-1.60
65290;BMP180;51893;59.754;10.110;2023-11-21T05:22:49;102382.80;;;-1.60
65290;BMP180;51893;59.754;10.110;2023-11-21T05:25:18;102384.40;;;-1.60
65290;BMP180;51893;59.754;10.110;2023-11-21T05:27:47;102385.00;;;-1.66
65290;BMP180;51893;59.754;10.110;2023-11-21T05:30:15;102382.60;;;-1.60
65290;BMP180;51893;59.754;10.110;2023-11-21T05:32:44;102385.40;;;-1.60
65290;BMP180;51893;59.754;10.110;2023-11-21T05:35:14;102389.80;;;-1.50
65290;BMP180;51893;59.754;10.110;2023-11-21T05:37:45;102390.20;;;-1.50
65290;BMP180;51893;59.754;10.110;2023-11-21T05:40:14;102390.60;;;-1.40
65290;BMP180;51893;59.754;10.110;2023-11-21T05:42:46;102392.40;;;-1.50
65290;BMP180;51893;59.754;10.110;2023-11-21T05:45:14;102394.80;;;-1.50
65290;BMP180;51893;59.754;10.110;2023-11-21T05:47:45;102394.40;;;-1.42
65290;BMP180;51893;59.754;10.110;2023-11-21T05:50:17;102402.40;;;-1.40
65290;BMP180;51893;59.754;10.110;2023-11-21T05:52:47;102404.80;;;-1.40
65290;BMP180;51893;59.754;10.110;2023-11-21T05:55:16;102408.20;;;-1.40
65290;BMP180;51893;59.754;10.110;2023-11-21T05:57:44;102411.00;;;-1.40
65290;BMP180;51893;59.754;10.110;2023-11-21T06:00:15;102413.80;;;-1.40
65290;BMP180;51893;59.754;10.110;2023-11-21T06:02:54;102414.60;;;-1.40
65290;BMP180;51893;59.754;10.110;2023-11-21T06:05:24;102418.80;;;-1.40
65290;BMP180;51893;59.754;10.110;2023-11-21T06:07:55;102422.00;;;-1.50
65290;BMP180;51893;59.754;10.110;2023-11-21T06:10:27;102427.80;;;-1.50
65290;BMP180;51893;59.754;10.110;2023-11-21T06:12:57;102433.20;;;-1.40
65290;BMP180;51893;59.754;10.110;2023-11-21T06:15:30;102437.00;;;-1.34
65290;BMP180;51893;59.754;10.110;2023-11-21T06:18:01;102434.20;;;-1.30
65290;BMP180;51893;59.754;10.110;2023-11-21T06:20:30;102440.60;;;-1.30
65290;BMP180;51893;59.754;10.110;2023-11-21T06:22:58;102448.20;;;-1.30
65290;BMP180;51893;59.754;10.110;2023-11-21T06:25:28;102455.40;;;-1.38
65290;BMP180;51893;59.754;10.110;2023-11-21T06:27:56;102459.80;;;-1.40
65290;BMP180;51893;59.754;10.110;2023-11-21T06:30:26;102464.20;;;-1.40
65290;BMP180;51893;59.754;10.110;2023-11-21T06:32:54;102472.20;;;-1.40
65290;BMP180;51893;59.754;10.110;2023-11-21T06:35:24;102476.80;;;-1.40
65290;BMP180;51893;59.754;10.110;2023-11-21T06:37:52;102479.00;;;-1.46
65290;BMP180;51893;59.754;10.110;2023-11-21T06:40:21;102491.00;;;-1.60
65290;BMP180;51893;59.754;10.110;2023-11-21T06:42:50;102496.60;;;-1.66
65290;BMP180;51893;59.754;10.110;2023-11-21T06:45:19;102499.20;;;-1.70
65290;BMP180;51893;59.754;10.110;2023-11-21T06:47:50;102511.80;;;-1.70
65290;BMP180;51893;59.754;10.110;2023-11-21T06:50:19;102512.00;;;-1.70
65290;BMP180;51893;59.754;10.110;2023-11-21T06:52:55;102511.40;;;-1.60
65290;BMP180;51893;59.754;10.110;2023-11-21T06:55:23;102514.00;;;-1.60
65290;BMP180;51893;59.754;10.110;2023-11-21T06:57:51;102517.20;;;-1.58
65290;BMP180;51893;59.754;10.110;2023-11-21T07:00:20;102522.80;;;-1.58
65290;BMP180;51893;59.754;10.110;2023-11-21T07:02:49;102522.20;;;-1.50
65290;BMP180;51893;59.754;10.110;2023-11-21T07:05:18;102524.40;;;-1.50
65290;BMP180;51893;59.754;10.110;2023-11-21T07:07:49;102530.80;;;-1.42
65290;BMP180;51893;59.754;10.110;2023-11-21T07:10:18;102538.60;;;-1.50
65290;BMP180;51893;59.754;10.110;2023-11-21T07:12:47;102541.00;;;-1.50
65290;BMP180;51893;59.754;10.110;2023-11-21T07:15:16;102546.60;;;-1.50
65290;BMP180;51893;59.754;10.110;2023-11-21T07:17:44;102548.40;;;-1.50
65290;BMP180;51893;59.754;10.110;2023-11-21T07:20:14;102550.20;;;-1.50
65290;BMP180;51893;59.754;10.110;2023-11-21T07:22:45;102549.60;;;-1.60
65290;BMP180;51893;59.754;10.110;2023-11-21T07:25:13;102555.40;;;-1.60
65290;BMP180;51893;59.754;10.110;2023-11-21T07:27:42;102564.40;;;-1.60
65290;BMP180;51893;59.754;10.110;2023-11-21T07:30:11;102568.00;;;-1.50
65290;BMP180;51893;59.754;10.110;2023-11-21T07:32:41;102564.00;;;-1.50
65290;BMP180;51893;59.754;10.110;2023-11-21T07:35:09;102563.60;;;-1.50
65290;BMP180;51893;59.754;10.110;2023-11-21T07:37:37;102570.60;;;-1.40
65290;BMP180;51893;59.754;10.110;2023-11-21T07:40:08;102569.60;;;-1.40
65290;BMP180;51893;59.754;10.110;2023-11-21T07:42:38;102571.40;;;-1.40
65290;BMP180;51893;59.754;10.110;2023-11-21T07:45:07;102581.80;;;-1.40
65290;BMP180;51893;59.754;10.110;2023-11-21T07:47:36;102575.60;;;-1.34
65290;BMP180;51893;59.754;10.110;2023-11-21T07:50:09;102579.80;;;-1.30
65290;BMP180;51893;59.754;10.110;2023-11-21T07:52:38;102583.40;;;-1.30
65290;BMP180;51893;59.754;10.110;2023-11-21T07:55:09;102588.60;;;-1.34
65290;BMP180;51893;59.754;10.110;2023-11-21T07:57:37;102592.60;;;-1.36
65290;BMP180;51893;59.754;10.110;2023-11-21T08:00:07;102588.00;;;-1.30
65290;BMP180;51893;59.754;10.110;2023-11-21T08:02:41;102591.60;;;-1.30
65290;BMP180;51893;59.754;10.110;2023-11-21T08:05:11;102594.20;;;-1.20
65290;BMP180;51893;59.754;10.110;2023-11-21T08:07:51;102589.40;;;-1.10
65290;BMP180;51893;59.754;10.110;2023-11-21T08:10:20;102596.60;;;-1.08
65290;BMP180;51893;59.754;10.110;2023-11-21T08:12:49;102596.80;;;-1.00
65290;BMP180;51893;59.754;10.110;2023-11-21T08:15:18;102601.80;;;-1.00
65290;BMP180;51893;59.754;10.110;2023-11-21T08:17:47;102609.80;;;-1.00
65290;BMP180;51893;59.754;10.110;2023-11-21T08:20:16;102610.20;;;-1.00
65290;BMP180;51893;59.754;10.110;2023-11-21T08:22:46;102616.20;;;-1.00
65290;BMP180;51893;59.754;10.110;2023-11-21T08:25:15;102620.80;;;-0.96
65290;BMP180;51893;59.754;10.110;2023-11-21T08:27:48;102630.00;;;-0.90
65290;BMP180;51893;59.754;10.110;2023-11-21T08:30:17;102629.40;;;-0.90
65290;BMP180;51893;59.754;10.110;2023-11-21T08:32:47;102632.60;;;-0.90
65290;BMP180;51893;59.754;10.110;2023-11-21T08:35:15;102633.60;;;-0.90
65290;BMP180;51893;59.754;10.110;2023-11-21T08:37:44;102637.80;;;-0.84
65290;BMP180;51893;59.754;10.110;2023-11-21T08:40:13;102635.80;;;-0.90
65290;BMP180;51893;59.754;10.110;2023-11-21T08:42:45;102639.00;;;-0.90
65290;BMP180;51893;59.754;10.110;2023-11-21T08:45:14;102641.20;;;-0.86
65290;BMP180;51893;59.754;10.110;2023-11-21T08:47:45;102637.40;;;-0.76
65290;BMP180;51893;59.754;10.110;2023-11-21T08:50:18;102642.80;;;-0.70
65290;BMP180;51893;59.754;10.110;2023-11-21T08:52:48;102650.20;;;-0.60
65290;BMP180;51893;59.754;10.110;2023-11-21T08:55:16;102652.20;;;-0.50
65290;BMP180;51893;59.754;10.110;2023-11-21T08:57:46;102650.00;;;-0.50
65290;BMP180;51893;59.754;10.110;2023-11-21T09:00:17;102648.40;;;-0.40
65290;BMP180;51893;59.754;10.110;2023-11-21T09:02:48;102656.20;;;-0.40
65290;BMP180;51893;59.754;10.110;2023-11-21T09:05:17;102654.00;;;-0.40
65290;BMP180;51893;59.754;10.110;2023-11-21T09:07:46;102656.80;;;-0.40
65290;BMP180;51893;59.754;10.110;2023-11-21T09:10:14;102658.00;;;-0.40
65290;BMP180;51893;59.754;10.110;2023-11-21T09:12:42;102663.20;;;-0.40
65290;BMP180;51893;59.754;10.110;2023-11-21T09:15:14;102666.20;;;-0.40
65290;BMP180;51893;59.754;10.110;2023-11-21T09:17:42;102677.20;;;-0.30
65290;BMP180;51893;59.754;10.110;2023-11-21T09:20:13;102684.00;;;-0.30
65290;BMP180;51893;59.754;10.110;2023-11-21T09:22:43;102687.60;;;-0.20
65290;BMP180;51893;59.754;10.110;2023-11-21T09:25:13;102695.00;;;-0.20
65290;BMP180;51893;59.754;10.110;2023-11-21T09:27:42;102695.00;;;-0.10
65290;BMP180;51893;59.754;10.110;2023-11-21T09:30:13;102698.60;;;-0.10
65290;BMP180;51893;59.754;10.110;2023-11-21T09:32:44;102703.20;;;-0.10
65290;BMP180;51893;59.754;10.110;2023-11-21T09:35:15;102706.80;;;-0.20
65290;BMP180;51893;59.754;10.110;2023-11-21T09:37:48;102709.60;;;-0.20
65290;BMP180;51893;59.754;10.110;2023-11-21T09:40:21;102711.40;;;-0.20
65290;BMP180;51893;59.754;10.110;2023-11-21T09:42:56;102708.80;;;-0.10
65290;BMP180;51893;59.754;10.110;2023-11-21T09:45:32;102706.20;;;-0.04
65290;BMP180;51893;59.754;10.110;2023-11-21T09:48:03;102705.20;;;0.00
65290;BMP180;51893;59.754;10.110;2023-11-21T09:50:36;102704.60;;;0.10
65290;BMP180;51893;59.754;10.110;2023-11-21T09:53:20;102701.80;;;0.20
65290;BMP180;51893;59.754;10.110;2023-11-21T09:55:55;102698.20;;;0.24
65290;BMP180;51893;59.754;10.110;2023-11-21T09:58:27;102691.80;;;0.30
65290;BMP180;51893;59.754;10.110;2023-11-21T10:00:59;102696.00;;;0.30
65290;BMP180;51893;59.754;10.110;2023-11-21T10:03:31;102699.40;;;0.30
65290;BMP180;51893;59.754;10.110;2023-11-21T10:06:02;102691.20;;;0.40
65290;BMP180;51893;59.754;10.110;2023-11-21T10:08:33;102693.80;;;0.50
65290;BMP180;51893;59.754;10.110;2023-11-21T10:11:19;102697.80;;;0.50
65290;BMP180;51893;59.754;10.110;2023-11-21T10:13:52;102697.60;;;0.50
65290;BMP180;51893;59.754;10.110;2023-11-21T10:16:26;102698.60;;;0.50
65290;BMP180;51893;59.754;10.110;2023-11-21T10:18:57;102702.00;;;0.50
65290;BMP180;51893;59.754;10.110;2023-11-21T10:21:40;102700.80;;;0.60
65290;BMP180;51893;59.754;10.110;2023-11-21T10:24:08;102700.80;;;0.60
65290;BMP180;51893;59.754;10.110;2023-11-21T10:26:37;102701.80;;;0.70
65290;BMP180;51893;59.754;10.110;2023-11-21T10:29:22;102698.00;;;0.70
65290;BMP180;51893;59.754;10.110;2023-11-21T10:31:52;102692.20;;;0.80
65290;BMP180;51893;59.754;10.110;2023-11-21T10:34:24;102694.00;;;0.80
65290;BMP180;51893;59.754;10.110;2023-11-21T10:36:52;102692.80;;;0.80
65290;BMP180;51893;59.754;10.110;2023-11-21T10:39:20;102692.40;;;0.80
65290;BMP180;51893;59.754;10.110;2023-11-21T10:41:52;102696.40;;;0.80
65290;BMP180;51893;59.754;10.110;2023-11-21T10:44:20;102693.40;;;0.90
65290;BMP180;51893;59.754;10.110;2023-11-21T10:46:52;102692.20;;;0.90
65290;BMP180;51893;59.754;10.110;2023-11-21T10:49:27;102693.80;;;0.90
65290;BMP180;51893;59.754;10.110;2023-11-21T10:51:58;102692.80;;;0.94
65290;BMP180;51893;59.754;10.110;2023-11-21T10:54:27;102697.80;;;1.00
65290;BMP180;51893;59.754;10.110;2023-11-21T10:57:00;102695.20;;;1.00
65290;BMP180;51893;59.754;10.110;2023-11-21T10:59:31;102688.40;;;1.10
65290;BMP180;51893;59.754;10.110;2023-11-21T11:04:49;102699.00;;;1.18
65290;BMP180;51893;59.754;10.110;2023-11-21T11:07:21;102694.60;;;1.20
65290;BMP180;51893;59.754;10.110;2023-11-21T11:09:54;102700.40;;;1.20
65290;BMP180;51893;59.754;10.110;2023-11-21T11:12:23;102698.40;;;1.26
65290;BMP180;51893;59.754;10.110;2023-11-21T11:14:56;102706.80;;;1.20
65290;BMP180;51893;59.754;10.110;2023-11-21T11:17:25;102705.60;;;1.20
65290;BMP180;51893;59.754;10.110;2023-11-21T11:19:55;102712.60;;;1.10
65290;BMP180;51893;59.754;10.110;2023-11-21T11:22:36;102711.80;;;1.10
65290;BMP180;51893;59.754;10.110;2023-11-21T11:28:20;102708.60;;;1.22
65290;BMP180;51893;59.754;10.110;2023-11-21T11:31:05;102707.20;;;1.30
65290;BMP180;51893;59.754;10.110;2023-11-21T11:33:57;102708.80;;;1.22
65290;BMP180;51893;59.754;10.110;2023-11-21T11:36:35;102708.20;;;1.20
65290;BMP180;51893;59.754;10.110;2023-11-21T11:42:04;102715.20;;;1.10
65290;BMP180;51893;59.754;10.110;2023-11-21T11:55:14;102734.00;;;1.30
65290;BMP180;51893;59.754;10.110;2023-11-21T11:57:53;102738.00;;;1.30
65290;BMP180;51893;59.754;10.110;2023-11-21T12:03:01;102738.20;;;1.30
65290;BMP180;51893;59.754;10.110;2023-11-21T12:05:34;102737.60;;;1.30
65290;BMP180;51893;59.754;10.110;2023-11-21T12:08:12;102739.20;;;1.30
65290;BMP180;51893;59.754;10.110;2023-11-21T12:10:43;102743.40;;;1.20
65290;BMP180;51893;59.754;10.110;2023-11-21T12:13:15;102744.80;;;1.10
65290;BMP180;51893;59.754;10.110;2023-11-21T12:15:45;102747.60;;;1.10
65290;BMP180;51893;59.754;10.110;2023-11-21T12:18:13;102748.80;;;1.10
65290;BMP180;51893;59.754;10.110;2023-11-21T12:20:41;102743.40;;;1.10
65290;BMP180;51893;59.754;10.110;2023-11-21T12:23:10;102741.20;;;1.10
65290;BMP180;51893;59.754;10.110;2023-11-21T12:25:40;102744.80;;;1.12
65290;BMP180;51893;59.754;10.110;2023-11-21T12:28:10;102743.20;;;1.16
65290;BMP180;51893;59.754;10.110;2023-11-21T12:30:40;102741.20;;;1.10
65290;BMP180;51893;59.754;10.110;2023-11-21T12:33:10;102739.60;;;1.10
65290;BMP180;51893;59.754;10.110;2023-11-21T12:35:42;102741.60;;;1.20
65290;BMP180;51893;59.754;10.110;2023-11-21T12:38:14;102741.60;;;1.30
65290;BMP180;51893;59.754;10.110;2023-11-21T12:40:45;102736.20;;;1.30
65290;BMP180;51893;59.754;10.110;2023-11-21T12:43:17;102737.20;;;1.40
65290;BMP180;51893;59.754;10.110;2023-11-21T12:45:48;102740.00;;;1.40
65290;BMP180;51893;59.754;10.110;2023-11-21T12:48:18;102740.00;;;1.40
65290;BMP180;51893;59.754;10.110;2023-11-21T12:50:52;102742.40;;;1.42
65290;BMP180;51893;59.754;10.110;2023-11-21T12:53:21;102740.20;;;1.48
65290;BMP180;51893;59.754;10.110;2023-11-21T12:55:49;102742.20;;;1.50
65290;BMP180;51893;59.754;10.110;2023-11-21T12:58:20;102747.20;;;1.42
65290;BMP180;51893;59.754;10.110;2023-11-21T13:00:49;102753.40;;;1.40
65290;BMP180;51893;59.754;10.110;2023-11-21T13:03:17;102750.80;;;1.40
65290;BMP180;51893;59.754;10.110;2023-11-21T13:05:50;102748.00;;;1.38
65290;BMP180;51893;59.754;10.110;2023-11-21T13:08:24;102753.20;;;1.30
65290;BMP180;51893;59.754;10.110;2023-11-21T13:10:55;102756.00;;;1.30
65290;BMP180;51893;59.754;10.110;2023-11-21T13:13:28;102760.60;;;1.30
65290;BMP180;51893;59.754;10.110;2023-11-21T13:16:04;102757.20;;;1.40
65290;BMP180;51893;59.754;10.110;2023-11-21T13:18:33;102760.40;;;1.40
65290;BMP180;51893;59.754;10.110;2023-11-21T13:21:05;102763.60;;;1.34
65290;BMP180;51893;59.754;10.110;2023-11-21T13:23:41;102759.20;;;1.30
65290;BMP180;51893;59.754;10.110;2023-11-21T13:26:10;102757.40;;;1.20
65290;BMP180;51893;59.754;10.110;2023-11-21T13:28:42;102766.20;;;1.24
65290;BMP180;51893;59.754;10.110;2023-11-21T13:31:14;102768.60;;;1.28
65290;BMP180;51893;59.754;10.110;2023-11-21T13:33:54;102774.40;;;1.20
65290;BMP180;51893;59.754;10.110;2023-11-21T13:36:25;102773.00;;;1.22
65290;BMP180;51893;59.754;10.110;2023-11-21T13:38:54;102766.60;;;1.20
65290;BMP180;51893;59.754;10.110;2023-11-21T13:41:22;102772.00;;;1.20
65290;BMP180;51893;59.754;10.110;2023-11-21T13:43:59;102783.00;;;1.20
65290;BMP180;51893;59.754;10.110;2023-11-21T13:46:44;102785.60;;;1.20
65290;BMP180;51893;59.754;10.110;2023-11-21T13:49:14;102789.20;;;1.20
65290;BMP180;51893;59.754;10.110;2023-11-21T13:51:43;102788.60;;;1.26
65290;BMP180;51893;59.754;10.110;2023-11-21T13:54:19;102786.80;;;1.20
65290;BMP180;51893;59.754;10.110;2023-11-21T13:56:52;102791.60;;;1.20
65290;BMP180;51893;59.754;10.110;2023-11-21T13:59:22;102789.40;;;1.20
65290;BMP180;51893;59.754;10.110;2023-11-21T14:01:59;102787.00;;;1.20
65290;BMP180;51893;59.754;10.110;2023-11-21T14:04:28;102788.60;;;1.26
65290;BMP180;51893;59.754;10.110;2023-11-21T14:07:15;102792.60;;;1.30
65290;BMP180;51893;59.754;10.110;2023-11-21T14:09:54;102788.40;;;1.40
65290;BMP180;51893;59.754;10.110;2023-11-21T14:12:23;102789.60;;;1.40
65290;BMP180;51893;59.754;10.110;2023-11-21T14:14:53;102792.00;;;1.44
65290;BMP180;51893;59.754;10.110;2023-11-21T14:17:22;102789.20;;;1.50
65290;BMP180;51893;59.754;10.110;2023-11-21T14:19:53;102789.20;;;1.44
65290;BMP180;51893;59.754;10.110;2023-11-21T14:22:32;102796.40;;;1.40
65290;BMP180;51893;59.754;10.110;2023-11-21T14:25:01;102801.20;;;1.40
65290;BMP180;51893;59.754;10.110;2023-11-21T14:27:32;102799.20;;;1.30
65290;BMP180;51893;59.754;10.110;2023-11-21T14:30:03;102799.60;;;1.30